Inuvik Mike Zubko Airport

CYEV · Northwest Territories, Canadá

METAR pasados CYEV · Inuvik Mike Zubko Airport

A continuación puedes ver los METAR de los últimos días. Selecciona un año para ver los METAR más antiguos, desde el año 2007 en adelante.

16 de julio de 2024

Hora Código Tiempo Temp. Visibilidad Cielo nuboso Viento METAR/SPECI
09:00
I
13 °C 15 mi 800 ft 340° 340° 8 kt METAR CYEV 161500Z 34008KT 15SM BKN008 OVC082 13/11 A2977 RMK ST5AC3 SLP086
08:00
I
13 °C 15 mi 800 ft 340° 340° 5 kt METAR CYEV 161400Z 34005KT 15SM BKN008 OVC070 13/11 A2977 RMK ST7AC1 CIG RAG SLP087
07:00
I
14 °C 15 mi 800 ft 290° 290° 6 kt METAR CYEV 161300Z 29006KT 270V340 15SM OVC008 14/12 A2977 RMK ST8 CIG RAG SLP085
06:51
I
14 °C 15 mi 800 ft 300° 300° 5 kt METAR CYEV 161251Z 30005KT 250V340 15SM BKN008 BKN080 OVC150 14/12 A2976 RMK ST6AC1AC1 CIG RAG SLP083
06:00
V
15 °C 15 mi 8.000 ft 310° 310° 5 kt METAR CYEV 161200Z 31005KT 270V350 15SM SCT007 BKN080 OVC150 15/13 A2975 RMK ST4AC3AC1 SLP078 DENSITY ALT 500FT
05:20
V
15 °C 15 mi 8.000 ft 310° 310° 12 - 19 kt METAR CYEV 161120Z 31012G19KT 15SM SCT007 BKN080 OVC150 15/13 A2974 RMK ST3AC3AC2 SLP076 DENSITY ALT 500FT
05:00
V
16 °C 15 mi 8.000 ft 330° 330° 10 - 16 kt METAR CYEV 161100Z 33010G16KT 270V340 15SM FEW020 BKN080 OVC150 16/14 A2973 RMK SC1AC7AC1 SC TR SLP072 DENSITY ALT 700FT
04:00
V
17 °C 15 mi 15.000 ft Var Var 2 kt METAR CYEV 161000Z VRB02KT 15SM FEW025 SCT070 BKN150 17/12 A2971 RMK SC1AC4AC3 SC TR SLP064 DENSITY ALT 800FT
03:00
V
18 °C 15 mi 10.000 ft 110° 110° 3 kt METAR CYEV 160900Z 11003KT 070V160 15SM FEW050 BKN100 BKN150 18/12 A2970 RMK SC1AC5AC2 SC TR SLP061 DENSITY ALT 1000FT
02:00
V
19 °C 15 mi 10.000 ft Var Var 2 kt METAR CYEV 160800Z VRB02KT 15SM FEW050 BKN100 BKN150 19/12 A2969 RMK SC1AC5AC2 SC TR SLP057 DENSITY ALT 1000FT
01:00
V
19 °C 15 mi 15.000 ft 160° 160° 4 kt METAR CYEV 160700Z 16004KT 15SM SCT093 BKN150 19/12 A2968 RMK AC3AC4 SLP055 DENSITY ALT 1100FT
00:00
V
20 °C 15 mi 9.300 ft Var Var 2 kt METAR CYEV 160600Z VRB02KT 15SM FEW055 BKN093 BKN150 20/12 A2968 RMK SC1AC5AC2 SC TR SLP053 DENSITY ALT 1100FT

15 de julio de 2024

Hora Código Tiempo Temp. Visibilidad Cielo nuboso Viento METAR/SPECI
23:00
V
19 °C 15 mi 9.300 ft 110° 110° 4 kt METAR CYEV 160500Z 11004KT 15SM FEW055 BKN093 BKN250 19/13 A2966 RMK SC1AC5CI1 SLP048 DENSITY ALT 1100FT
22:33
V
19 °C 15 mi 8.600 ft 120° 120° 6 kt METAR CYEV 160433Z 12006KT 15SM FEW055 BKN086 OVC250 19/14 A2966 RMK SC2AC5CI1 SLP048 DENSITY ALT 1100FT
22:00
V
20 °C 15 mi 8.600 ft 110° 110° 6 kt METAR CYEV 160400Z 11006KT 15SM FEW055 BKN086 OVC250 20/13 A2966 RMK SC2AC5CI1 INTMT -RA SLP049 DENSITY ALT 1200FT
21:00
V
20 °C 10 mi 10.000 ft Var Var 2 kt METAR CYEV 160300Z VRB02KT 10SM -RA SCT055 BKN100 OVC250 20/13 A2966 RMK SC3AC4CI1 SLP048 DENSITY ALT 1200FT
20:00
V
22 °C 15 mi 9.700 ft 290° 290° 4 kt METAR CYEV 160200Z 29004KT 250V330 15SM FEW047 BKN097 BKN250 22/12 A2965 RMK SC2AC4CI1 INTMT -RA SLP045 DENSITY ALT 1400FT
19:00
V
22 °C 15 mi 9.400 ft 330° 330° 10 kt METAR CYEV 160100Z 33010KT 15SM -RA FEW050 BKN094 BKN250 22/12 A2964 RMK SC2AC4CI1 SLP040 DENSITY ALT 1500FT
18:54
V
22 °C 15 mi 9.300 ft 320° 320° 10 kt METAR CYEV 160054Z 32010KT 15SM -RA FEW050 BKN093 BKN250 22/12 A2964 RMK SC2AC4CI1 SLP040 DENSITY ALT 1400FT
18:00
V
22 °C 15 mi 25.000 ft 300° 300° 11 - 17 kt METAR CYEV 160000Z 30011G17KT 15SM FEW045 SCT110 BKN250 22/11 A2963 RMK SC2AC2CI3 CU ASOCTD SLP037 DENSITY ALT 1500FT
17:00
V
24 °C 15 mi 16.000 ft 310° 310° 14 - 21 kt METAR CYEV 152300Z 31014G21KT 15SM SCT047 BKN160 BKN270 24/12 A2961 RMK CU3AC2CI1 SLP032 DENSITY ALT 1700FT
16:00
V
25 °C 15 mi - 280° 280° 10 - 16 kt METAR CYEV 152200Z 28010G16KT 250V360 15SM SCT045 25/13 A2959 RMK CU4 SLP023 DENSITY ALT 1900FT
15:00
V
25 °C 15 mi 17.000 ft 300° 300° 5 kt METAR CYEV 152100Z 30005KT 250V040 15SM FEW045 BKN170 BKN260 25/14 A2958 RMK CU1AC6CI1 CU TR SLP020 DENSITY ALT 1800FT
14:00
V
25 °C 15 mi 17.000 ft 280° 280° 5 kt METAR CYEV 152000Z 28005KT 220V330 15SM FEW050 BKN170 BKN260 25/13 A2957 RMK CU1AC7CI1 CU TR CI TR SLP015 DENSITY ALT 1900FT
13:00
V
24 °C 15 mi 17.000 ft 270° 270° 5 kt METAR CYEV 151900Z 27005KT 220V290 15SM BKN170 BKN260 24/13 A2957 RMK AC5CI1 SLP016 DENSITY ALT 1800FT
12:00
V
23 °C 15 mi 17.000 ft 250° 250° 4 kt METAR CYEV 151800Z 25004KT 210V340 15SM BKN170 23/13 A2955 RMK AC6 SLP011 DENSITY ALT 1700FT
11:00
V
22 °C 15 mi 17.000 ft 290° 290° 4 kt METAR CYEV 151700Z 29004KT 15SM BKN170 22/13 A2954 RMK AC7 SLP007 DENSITY ALT 1600FT
10:00
V
21 °C 15 mi 17.000 ft Var Var 2 kt METAR CYEV 151600Z VRB02KT 15SM BKN170 21/14 A2953 RMK AC7 SLP002 DENSITY ALT 1500FT
09:00
V
21 °C 15 mi 17.000 ft 300° 300° 4 kt METAR CYEV 151500Z 30004KT 240V330 15SM BKN170 21/13 A2952 RMK AC7 SLP999 DENSITY ALT 1500FT
08:00
V
20 °C 15 mi 16.000 ft Var Var 2 kt METAR CYEV 151400Z VRB02KT 15SM FEW100 BKN160 20/13 A2951 RMK AC1AC7 AC TR SLP995 DENSITY ALT 1400FT
07:00
V
19 °C 15 mi 16.000 ft 320° 320° 6 kt METAR CYEV 151300Z 32006KT 15SM FEW100 BKN160 19/13 A2950 RMK AC2AC5 SLP994 DENSITY ALT 1300FT
06:00
V
19 °C 15 mi 15.000 ft 330° 330° 2 kt METAR CYEV 151200Z 33002KT 15SM SCT100 BKN150 19/13 A2949 RMK AC4AC3 SLP988 DENSITY ALT 1300FT
05:00
V
18 °C 15 mi 15.000 ft 330° 330° 4 kt METAR CYEV 151100Z 33004KT 15SM FEW048 SCT100 BKN150 18/15 A2948 RMK SC1AC4AC3 SC TR SLP986 DENSITY ALT 1200FT
04:00
V
19 °C 15 mi 15.000 ft 310° 310° 3 kt METAR CYEV 151000Z 31003KT 15SM SCT100 BKN150 OVC220 19/14 A2946 RMK AC4AC2CI2 SLP981 DENSITY ALT 1300FT
03:00
V
21 °C 15 mi 15.000 ft 330° 330° 4 kt METAR CYEV 150900Z CCA 33004KT 15SM SCT100 BKN150 BKN220 21/13 A2944 RMK AC3AC3CI1 SLP974 DENSITY ALT 1500FT
02:00
V
24 °C 15 mi 15.000 ft 170° 170° 3 kt METAR CYEV 150800Z 17003KT 140V220 15SM SCT100 BKN150 BKN220 24/10 A2943 RMK AC3AC3CI1 SLP969 DENSITY ALT 1900FT
01:00
V
24 °C 15 mi 10.000 ft 090° 090° 3 kt METAR CYEV 150700Z 09003KT 060V130 15SM BKN100 BKN220 24/11 A2942 RMK AC5CC2 SLP967 DENSITY ALT 1900FT
00:00
V
25 °C 15 mi 13.000 ft 360° 360° 0 kt METAR CYEV 150600Z 00000KT 15SM FEW100 BKN130 BKN220 25/11 A2942 RMK AC1AC5CC2 AC TR SLP965 DENSITY ALT 2100FT

14 de julio de 2024

Hora Código Tiempo Temp. Visibilidad Cielo nuboso Viento METAR/SPECI
23:00
V
26 °C 15 mi 15.000 ft 100° 100° 3 kt METAR CYEV 150500Z 10003KT 15SM FEW100 BKN150 BKN270 26/10 A2941 RMK AC1AC5CI2 AC TR SLP964 DENSITY ALT 2200FT
22:00
V
26 °C 15 mi 27.000 ft 240° 240° 3 kt METAR CYEV 150400Z 24003KT 15SM FEW090 SCT150 BKN270 26/09 A2942 RMK AC1AC4CI3 AC TR SLP966 DENSITY ALT 2200FT
21:00
V
27 °C 15 mi 27.000 ft 240° 240° 7 kt METAR CYEV 150300Z 24007KT 15SM FEW080 FEW150 BKN270 27/09 A2942 RMK AC1AC1CI6 AC TR SLP966 DENSITY ALT 2300FT
20:00
V
29 °C 15 mi 27.000 ft 180° 180° 5 kt METAR CYEV 150200Z 18005KT 150V210 15SM FEW090 BKN270 29/07 A2942 RMK AC1CI7 AC TR SLP965 DENSITY ALT 2500FT
19:00
V
29 °C 15 mi 27.000 ft 200° 200° 7 kt METAR CYEV 150100Z 20007KT 15SM FEW090 BKN270 29/07 A2942 RMK AC1CI7 AC TR SLP965 DENSITY ALT 2500FT
18:00
V
29 °C 15 mi 27.000 ft 160° 160° 7 kt METAR CYEV 150000Z 16007KT 130V200 15SM FEW090 FEW120 BKN270 29/06 A2942 RMK CU1AC1CI6 CU TR AC TR SLP966 DENSITY ALT 2500FT
17:00
V
29 °C 15 mi 27.000 ft 200° 200° 7 kt METAR CYEV 142300Z 20007KT 190V250 15SM FEW090 BKN270 29/07 A2943 RMK CU1CI5 CU TR SLP969 DENSITY ALT 2500FT
16:00
V
29 °C 15 mi 27.000 ft 230° 230° 9 kt METAR CYEV 142200Z 23009KT 180V240 15SM FEW090 BKN270 29/06 A2943 RMK CU1CI5 CU TR SLP969 DENSITY ALT 2500FT
15:00
V
29 °C 15 mi 26.000 ft 170° 170° 8 kt METAR CYEV 142100Z 17008KT 140V240 15SM FEW085 BKN260 29/07 A2943 RMK CU1CI4 SLP970 DENSITY ALT 2500FT
14:00
V
28 °C 15 mi - 210° 210° 9 kt METAR CYEV 142000Z 21009KT 15SM FEW084 SCT260 28/07 A2944 RMK CU1CI4 CU TR SLP974 DENSITY ALT 2400FT
13:00
V
28 °C 15 mi - 190° 190° 7 kt METAR CYEV 141900Z 19007KT 15SM FEW076 SCT260 28/08 A2944 RMK CU1CI3 CU TR SLP973 DENSITY ALT 2300FT
12:00
V
26 °C 15 mi 26.000 ft 220° 220° 6 kt METAR CYEV 141800Z 22006KT 170V260 15SM BKN260 26/10 A2944 RMK CI6 SLP973 DENSITY ALT 2200FT
11:00
V
25 °C 15 mi 26.000 ft 180° 180° 5 kt METAR CYEV 141700Z 18005KT 140V220 15SM BKN260 25/11 A2945 RMK CI6 SLP975 DENSITY ALT 2000FT
10:00
V
24 °C 15 mi 26.000 ft 140° 140° 4 kt METAR CYEV 141600Z 14004KT 110V180 15SM BKN260 24/11 A2946 RMK CI5 SLP978 DENSITY ALT 1800FT
09:00
V
22 °C 15 mi 26.000 ft 130° 130° 6 kt METAR CYEV 141500Z 13006KT 15SM BKN260 22/11 A2947 RMK CI5 SLP984 DENSITY ALT 1700FT
08:00
V
21 °C 15 mi - 090° 090° 6 kt METAR CYEV 141400Z 09006KT 15SM FEW250 21/10 A2948 RMK CI2 SLP985 DENSITY ALT 1500FT
07:00
V
21 °C 15 mi - 080° 080° 7 kt METAR CYEV 141300Z 08007KT 15SM FEW160 FEW250 21/09 A2948 RMK AC1CI1 AC TR SLP987 DENSITY ALT 1500FT
06:00
V
19 °C 15 mi - 060° 060° 5 kt METAR CYEV 141200Z 06005KT 15SM FEW160 SCT250 19/09 A2949 RMK AC1CI4 AC TR SLP989 DENSITY ALT 1300FT
05:00
V
18 °C 15 mi - 050° 050° 7 kt METAR CYEV 141100Z 05007KT 15SM FEW160 SCT250 18/08 A2949 RMK AC1CI4 AC TR SLP991 DENSITY ALT 1100FT
04:00
V
19 °C 15 mi - 060° 060° 6 kt METAR CYEV 141000Z 06006KT 15SM FEW160 SCT250 19/08 A2950 RMK AC1CI4 AC TR SLP994 DENSITY ALT 1200FT
03:00
V
20 °C 15 mi - 080° 080° 4 kt METAR CYEV 140900Z 08004KT 15SM FEW160 SCT250 20/08 A2951 RMK AC1CI4 AC TR SLP997 DENSITY ALT 1400FT
02:00
V
22 °C 15 mi - 090° 090° 3 kt METAR CYEV 140800Z 09003KT 070V140 15SM FEW160 SCT260 22/08 A2952 RMK AC1CI4 AC TR SLP999 DENSITY ALT 1600FT
01:00
V
24 °C 15 mi - 120° 120° 4 kt METAR CYEV 140700Z 12004KT 15SM FEW160 SCT260 24/09 A2952 RMK AC1CI4 AC TR SLP000 DENSITY ALT 1800FT
00:00
V
26 °C 15 mi - 130° 130° 5 kt METAR CYEV 140600Z 13005KT 15SM FEW160 SCT260 26/09 A2953 RMK AC1CI4 AC TR SLP002 DENSITY ALT 2000FT
Cambiar esta información